createdAt,value
2022-12-22T08:59:09.196Z,46.72
2022-12-22T09:01:38.835Z,47.40
2022-12-22T09:04:07.826Z,49.90
2022-12-22T09:06:40.807Z,49.15
2022-12-22T09:09:11.253Z,50.17
2022-12-22T09:11:39.539Z,47.17
2022-12-22T09:14:09.487Z,44.65
2022-12-22T09:16:37.433Z,47.22
2022-12-22T09:19:06.279Z,47.22
2022-12-22T09:21:33.881Z,46.17
2022-12-22T09:24:01.270Z,45.47
2022-12-22T09:26:29.951Z,44.05
2022-12-22T09:28:58.672Z,42.97
2022-12-22T09:31:27.628Z,44.67
2022-12-22T09:33:55.252Z,41.10
2022-12-22T09:36:24.845Z,41.03
2022-12-22T09:38:52.684Z,38.85
2022-12-22T09:41:32.209Z,43.00
2022-12-22T09:44:04.220Z,41.53
2022-12-22T09:46:36.253Z,42.90
2022-12-22T09:49:06.046Z,47.50
2022-12-22T09:51:40.303Z,48.22
2022-12-22T09:54:10.535Z,45.03
2022-12-22T09:56:37.914Z,48.10
2022-12-22T09:59:11.118Z,42.45
2022-12-22T10:02:15.541Z,40.35
2022-12-22T10:04:55.160Z,37.58
2022-12-22T10:07:29.044Z,38.75
2022-12-22T10:09:56.436Z,37.38
2022-12-22T10:12:26.702Z,37.88
2022-12-22T10:14:55.252Z,39.22
2022-12-22T10:17:28.102Z,36.58
2022-12-22T10:20:09.496Z,42.45
2022-12-22T10:22:48.017Z,42.63
2022-12-22T10:25:35.864Z,48.85
2022-12-22T10:28:20.732Z,47.35
2022-12-22T10:30:48.465Z,49.20
2022-12-22T10:33:19.497Z,50.72
2022-12-22T10:35:52.581Z,51.08
2022-12-22T10:38:23.802Z,52.95
2022-12-22T10:41:01.592Z,50.72
2022-12-22T10:43:32.210Z,49.17
2022-12-22T10:46:00.637Z,46.65
2022-12-22T10:48:34.904Z,44.67
2022-12-22T10:51:05.305Z,35.67
2022-12-22T10:53:51.576Z,44.50
2022-12-22T10:56:23.116Z,42.70
2022-12-22T10:58:52.714Z,39.47
2022-12-22T11:01:30.479Z,38.83
2022-12-22T11:04:15.361Z,38.55
2022-12-22T11:06:44.535Z,36.28
2022-12-22T11:09:32.349Z,37.10
2022-12-22T11:12:07.878Z,40.45
2022-12-22T11:14:48.611Z,39.05
2022-12-22T11:17:23.721Z,40.30
2022-12-22T11:20:06.374Z,36.22
2022-12-22T11:22:41.407Z,38.25
2022-12-22T11:25:26.056Z,37.95
2022-12-22T11:28:10.397Z,40.45
2022-12-22T11:30:48.224Z,34.13
2022-12-22T11:33:26.978Z,38.65
2022-12-22T11:36:00.448Z,37.65
2022-12-22T11:38:45.751Z,37.03
2022-12-22T11:41:31.481Z,37.75
2022-12-22T11:44:17.572Z,38.30
2022-12-22T11:46:53.619Z,41.20
2022-12-22T11:49:33.691Z,37.45
2022-12-22T11:52:15.678Z,37.33
2022-12-22T11:55:09.041Z,42.47
2022-12-22T11:57:45.051Z,38.63
2022-12-22T12:00:15.006Z,39.08
2022-12-22T12:03:31.073Z,38.05
2022-12-22T12:06:18.487Z,38.38
2022-12-22T12:08:59.555Z,39.03
2022-12-22T12:11:33.857Z,40.83
2022-12-22T12:14:09.099Z,40.13
2022-12-22T12:16:43.244Z,40.47
2022-12-22T12:19:34.907Z,40.50
2022-12-22T12:22:05.887Z,38.17
2022-12-22T12:24:59.587Z,42.65
2022-12-22T12:27:42.694Z,41.55
2022-12-22T12:33:06.178Z,42.92
2022-12-22T12:35:47.492Z,44.50
2022-12-22T12:39:05.755Z,43.78
2022-12-22T12:41:24.442Z,41.08
2022-12-22T12:43:54.908Z,40.25
2022-12-22T12:46:45.420Z,42.97
2022-12-22T12:49:50.612Z,36.42
2022-12-22T12:52:17.985Z,41.10
2022-12-22T12:54:47.208Z,39.42
2022-12-22T12:57:30.910Z,36.33
2022-12-22T12:59:59.490Z,32.65
2022-12-22T13:02:33.487Z,31.35
2022-12-22T13:05:02.781Z,30.63
2022-12-22T13:08:07.475Z,29.33
2022-12-22T13:10:41.551Z,31.27
2022-12-22T13:13:14.617Z,31.40
2022-12-22T13:15:44.933Z,32.47
2022-12-22T13:18:49.890Z,40.08
2022-12-22T13:24:30.668Z,34.83
2022-12-22T13:27:04.863Z,34.85
2022-12-22T13:29:42.048Z,34.90
2022-12-22T13:32:21.329Z,35.97
2022-12-22T13:35:29.692Z,37.63
2022-12-22T13:37:49.043Z,35.20
2022-12-22T13:40:19.758Z,34.72
2022-12-22T13:42:50.561Z,35.90
2022-12-22T13:45:28.967Z,35.45
2022-12-22T13:47:56.854Z,39.42
2022-12-22T13:50:29.067Z,37.25
2022-12-22T13:52:58.127Z,34.05
2022-12-22T13:55:28.462Z,46.47
2022-12-22T13:57:59.446Z,38.35
2022-12-22T14:00:29.847Z,35.03
2022-12-22T14:02:57.498Z,37.35
2022-12-22T14:05:32.229Z,34.95
2022-12-22T14:08:01.989Z,38.40
2022-12-22T14:10:34.235Z,37.70
2022-12-22T14:13:06.717Z,40.55
2022-12-22T14:15:37.682Z,40.28
2022-12-22T14:18:06.568Z,41.20
2022-12-22T14:20:36.544Z,38.63
2022-12-22T14:23:07.271Z,42.20
2022-12-22T14:25:37.255Z,37.28
2022-12-22T14:28:07.395Z,43.90
2022-12-22T14:30:39.391Z,38.17
2022-12-22T14:33:28.566Z,35.85
2022-12-22T14:36:14.579Z,36.25
2022-12-22T14:38:44.397Z,32.85
2022-12-22T14:41:37.583Z,34.75
2022-12-22T14:44:06.026Z,34.90
2022-12-22T14:46:38.902Z,38.38
2022-12-22T14:49:06.988Z,32.95
2022-12-22T14:51:34.446Z,35.92
2022-12-22T14:54:03.390Z,35.80
2022-12-22T14:56:30.916Z,32.80
2022-12-22T14:59:22.688Z,34.22
2022-12-22T15:01:59.753Z,31.00
2022-12-22T15:04:28.340Z,34.97
2022-12-22T15:07:10.174Z,38.03
2022-12-22T15:14:59.049Z,33.40
2022-12-22T15:17:27.851Z,36.42
2022-12-22T15:19:58.639Z,33.58
2022-12-22T15:22:26.061Z,36.30
2022-12-22T15:24:53.417Z,40.15
2022-12-22T15:27:20.799Z,37.67
2022-12-22T15:29:48.189Z,36.47
2022-12-22T15:32:15.652Z,38.60
2022-12-22T15:34:44.638Z,38.38
2022-12-22T15:37:13.436Z,37.80
2022-12-22T15:39:41.285Z,51.13
2022-12-22T15:42:08.681Z,42.20
2022-12-22T15:44:38.928Z,46.65
2022-12-22T15:47:07.087Z,54.55
2022-12-22T15:49:34.491Z,59.95
2022-12-22T15:52:05.210Z,52.78
2022-12-22T15:54:33.795Z,55.35
2022-12-22T15:57:02.194Z,51.47
2022-12-22T15:59:30.262Z,67.35
2022-12-22T16:04:29.415Z,69.25
2022-12-22T16:06:57.289Z,70.82
2022-12-22T16:09:28.725Z,85.55
2022-12-22T16:11:56.132Z,92.55
2022-12-22T16:14:24.308Z,86.32
2022-12-22T16:16:51.823Z,1999.90
2022-12-22T16:19:20.186Z,1999.90
2022-12-22T16:21:51.193Z,1999.90
2022-12-22T16:24:26.714Z,1999.90
2022-12-22T16:26:57.737Z,1999.90
2022-12-22T16:29:25.973Z,1999.90
2022-12-22T16:31:53.996Z,1999.90
2022-12-22T16:36:48.764Z,1999.90
2022-12-22T16:39:16.161Z,1999.90
2022-12-22T16:41:45.110Z,1999.90
2022-12-22T16:47:06.910Z,1999.90
2022-12-22T16:49:34.263Z,1999.90
2022-12-22T16:52:01.660Z,1999.90
2022-12-22T16:54:29.073Z,1999.90
2022-12-22T16:56:56.675Z,1999.90
2022-12-22T16:59:25.619Z,1999.90
2022-12-22T17:01:55.991Z,1999.90
2022-12-22T17:04:26.842Z,1999.90
2022-12-22T17:06:56.208Z,1999.90
2022-12-22T17:09:28.068Z,1999.90
2022-12-22T17:11:56.453Z,1999.90
2022-12-22T17:14:30.838Z,1999.90
2022-12-22T17:17:00.562Z,1999.90
2022-12-22T17:19:28.001Z,1999.90
2022-12-22T17:21:58.603Z,1999.90
2022-12-22T17:24:28.636Z,1999.90
2022-12-22T17:26:58.047Z,1999.90
2022-12-22T17:29:26.746Z,1999.90
2022-12-22T17:31:56.413Z,1999.90
2022-12-22T17:34:24.222Z,1999.90
2022-12-22T17:36:51.905Z,1999.90
2022-12-22T17:39:21.816Z,1999.90
2022-12-22T17:41:56.377Z,1999.90
2022-12-22T17:44:28.230Z,1999.90
2022-12-22T17:46:55.880Z,1999.90
2022-12-22T17:49:23.386Z,1999.90
2022-12-22T17:51:51.521Z,1999.90
2022-12-22T17:54:23.079Z,1999.90
2022-12-22T17:56:50.979Z,1999.90
2022-12-22T17:59:18.388Z,1999.90
2022-12-22T18:01:47.183Z,1999.90
2022-12-22T18:04:14.706Z,1999.90
2022-12-22T18:06:43.419Z,1999.90
2022-12-22T18:09:19.453Z,1999.90
2022-12-22T18:11:46.884Z,1999.90
2022-12-22T18:14:15.650Z,1999.90
2022-12-22T18:16:43.875Z,1999.90
2022-12-22T18:19:12.716Z,1999.90
2022-12-22T18:21:40.327Z,1999.90
2022-12-22T18:24:15.608Z,1999.90
2022-12-22T18:26:42.986Z,1999.90
2022-12-22T18:29:14.703Z,1999.90
2022-12-22T18:31:43.892Z,1999.90
2022-12-22T18:34:13.085Z,1999.90
2022-12-22T18:36:42.385Z,1514.97
2022-12-22T18:39:17.549Z,67.55
2022-12-22T18:41:45.514Z,65.97
2022-12-22T18:44:16.758Z,64.28
2022-12-22T18:46:44.520Z,1518.57
2022-12-22T18:49:13.719Z,1517.85
2022-12-22T18:51:42.785Z,66.15
2022-12-22T18:54:23.059Z,65.82
2022-12-22T18:56:50.453Z,62.92
2022-12-22T18:59:24.401Z,63.35
2022-12-22T19:01:52.456Z,57.00
2022-12-22T19:04:21.356Z,57.95
2022-12-22T19:06:48.710Z,59.25
2022-12-22T19:09:16.948Z,56.90
2022-12-22T19:11:44.480Z,57.22
2022-12-22T19:14:19.089Z,57.20
2022-12-22T19:16:47.493Z,53.60
2022-12-22T19:19:18.941Z,53.35
2022-12-22T19:21:48.608Z,58.53
2022-12-22T19:24:16.557Z,61.17
2022-12-22T19:26:44.373Z,66.75
2022-12-22T19:29:15.023Z,62.10
2022-12-22T19:31:45.029Z,59.88
2022-12-22T19:34:18.122Z,60.13
2022-12-22T19:36:45.545Z,60.22
2022-12-22T19:39:14.259Z,58.28
2022-12-22T19:41:44.668Z,58.67
2022-12-22T19:44:18.770Z,57.10
2022-12-22T19:46:46.377Z,59.78
2022-12-22T19:49:15.982Z,60.50
2022-12-22T19:51:43.380Z,58.35
2022-12-22T19:54:10.823Z,60.25
2022-12-22T19:56:40.923Z,61.20
2022-12-22T19:59:20.458Z,61.03
2022-12-22T20:01:53.097Z,64.38
2022-12-22T20:04:20.582Z,61.80
2022-12-22T20:06:48.023Z,58.97
2022-12-22T20:09:15.402Z,62.50
2022-12-22T20:11:44.880Z,60.45
2022-12-22T20:14:16.685Z,62.95
2022-12-22T20:16:44.330Z,61.67
2022-12-22T20:19:14.131Z,61.05
2022-12-22T20:21:42.275Z,64.60
2022-12-22T20:24:19.401Z,64.78
2022-12-22T20:26:53.764Z,67.40
2022-12-22T20:29:22.224Z,59.60
2022-12-22T20:31:49.759Z,62.03
2022-12-22T20:34:17.158Z,64.07
2022-12-22T20:36:44.551Z,68.35
2022-12-22T20:39:16.155Z,63.45
2022-12-22T20:41:50.510Z,64.30
2022-12-22T20:44:22.265Z,67.10
2022-12-22T20:46:49.939Z,1999.90
2022-12-22T20:49:17.472Z,1999.90
2022-12-22T20:51:44.879Z,1999.90
2022-12-22T20:54:14.250Z,1999.90
2022-12-22T20:56:42.340Z,1516.63
2022-12-22T21:01:42.340Z,1999.90
2022-12-22T21:04:09.963Z,1999.90
2022-12-22T21:06:39.519Z,1999.90
2022-12-22T21:09:06.949Z,1999.90
2022-12-22T21:11:35.935Z,1999.90
2022-12-22T21:14:03.327Z,1999.90
2022-12-22T21:16:33.993Z,1999.90
2022-12-22T21:19:03.763Z,1999.90
2022-12-22T21:21:31.533Z,1999.90
2022-12-22T21:23:59.002Z,1999.90
2022-12-22T21:26:32.158Z,1999.90
2022-12-22T21:29:00.727Z,1999.90
2022-12-22T21:31:28.503Z,1999.90
2022-12-22T21:33:56.026Z,65.63
2022-12-22T21:36:28.921Z,67.38
2022-12-22T21:38:59.900Z,61.05
2022-12-22T21:41:41.441Z,66.93
2022-12-22T21:44:09.399Z,67.20
2022-12-22T21:46:36.895Z,65.63
2022-12-22T21:49:04.329Z,57.70
2022-12-22T21:51:33.078Z,57.47
2022-12-22T21:54:00.529Z,56.92
2022-12-22T21:56:27.935Z,61.22
2022-12-22T21:59:01.869Z,64.40
2022-12-22T22:01:31.074Z,57.80
2022-12-22T22:03:58.633Z,61.13
2022-12-22T22:06:26.096Z,1514.63
2022-12-22T22:08:54.850Z,1999.90
2022-12-22T22:11:23.969Z,1999.90
2022-12-22T22:13:52.203Z,1999.90
2022-12-22T22:16:20.687Z,1999.90
2022-12-22T22:18:49.059Z,1999.90
2022-12-22T22:21:18.347Z,1999.90
2022-12-22T22:23:45.788Z,1999.90
2022-12-22T22:26:14.588Z,1999.90
2022-12-22T22:28:41.994Z,1999.90
2022-12-22T22:31:10.919Z,1999.90
2022-12-22T22:33:38.798Z,1999.90
2022-12-22T22:36:07.199Z,1999.90
2022-12-22T22:38:34.781Z,1999.90
2022-12-22T22:41:02.448Z,1999.90
2022-12-22T22:43:31.243Z,1999.90
2022-12-22T22:45:58.713Z,1999.90
2022-12-22T22:48:26.174Z,1999.90
2022-12-22T22:50:53.631Z,1999.90
2022-12-22T22:53:21.037Z,1999.90
2022-12-22T22:55:48.428Z,1999.90
2022-12-22T22:58:15.863Z,1999.90
2022-12-22T23:00:44.564Z,1999.90
2022-12-22T23:03:12.184Z,1999.90
2022-12-22T23:05:40.032Z,1999.90
2022-12-22T23:08:07.520Z,1999.90
2022-12-22T23:10:41.123Z,1999.90
2022-12-22T23:13:09.146Z,1999.90
2022-12-22T23:15:36.540Z,1999.90
2022-12-22T23:18:05.435Z,1999.90
2022-12-22T23:20:32.861Z,1999.90
2022-12-22T23:23:00.302Z,1999.90
2022-12-22T23:25:27.728Z,1999.90
2022-12-22T23:27:55.129Z,1999.90
2022-12-22T23:30:22.570Z,1999.90
2022-12-22T23:32:49.990Z,1999.90
2022-12-22T23:35:18.788Z,1999.90
2022-12-22T23:37:46.210Z,1999.90
2022-12-22T23:43:01.344Z,1999.90
2022-12-22T23:45:28.854Z,1999.90
2022-12-22T23:47:56.311Z,1999.90
2022-12-22T23:50:25.407Z,1999.90
2022-12-22T23:52:53.862Z,1999.90
2022-12-22T23:55:22.303Z,1999.90
2022-12-22T23:57:50.863Z,1999.90
